• Join FlightAware (Why Join?)
  • Login
  • US Flag 
07:23AM EDT


 

Airport Tracker/Info


-or-


 

Live Flight TrackerFlight Track Log ✈ SWA757 ✈ 23-Apr-2013 ✈ KSJC - KSAN

Flight Track Log - Related Links

Times and Time Zones

All times are in EDT time to prevent confusion due to time zone crossing. See the SWA757 flight status page for this flight to view local times or setup timezone preferences in your user account.

Time Position Orientation Groundspeed Altitude Reporting Facility
EDT Latitude Longitude Course Direction KTS MPH feet Rate Location/Type
11:18PM 37.3992 -121.9342 141° Southeast 250 288 2,900  Level Oakland Center
11:19PM 37.3700 -121.8736 121° Southeast 228 262 6,400 3,240 Climbing Oakland Center
11:20PM 37.3200 -121.8147 137° Southeast 252 290 9,500 3,420 Climbing Oakland Center
11:21PM 37.2542 -121.7417 139° Southeast 313 360 13,400 3,660 Climbing Oakland Center
11:23PM 37.1811 -121.6578 138° Southeast 351 404 17,000 3,240 Climbing Oakland Center
11:24PM 36.8971 -121.4179 141° Southeast  Level Estimated
11:24PM 37.1006 -121.5672 138° Southeast 383 441 20,100  Level Oakland Center
11:25PM 37.0147 -121.4708 138° Southeast 403 464 23,700 3,180 Climbing Oakland Center
11:26PM 36.9281 -121.3733 138° Southeast 418 481 26,600 2,700 Climbing Oakland Center
11:27PM 36.8369 -121.2725 138° Southeast 434 499 29,200 2,400 Climbing Oakland Center
11:28PM 36.7347 -121.1617 139° Southeast 444 511 31,600 2,340 Climbing Oakland Center
11:29PM 36.6397 -121.0558 138° Southeast 455 524 34,000 2,340 Climbing Oakland Center
11:30PM 36.5472 -120.9522 138° Southeast 449 517 36,400 2,160 Climbing Oakland Center
11:31PM 36.4553 -120.8508 138° Southeast 442 509 38,400 1,620 Climbing Oakland Center
11:32PM 36.3656 -120.7497 138° Southeast 437 503 39,800 1,200 Climbing Oakland Center
11:33PM 36.2725 -120.6492 139° Southeast 442 509 40,900 540 Climbing Oakland Center
11:34PM 36.1775 -120.5506 140° Southeast 446 513 41,000  Climbing Oakland Center
11:35PM 36.0836 -120.4450 138° Southeast 458 527 41,000  Level Oakland Center
11:36PM 35.9906 -120.3472 140° Southeast 433 498 41,000  Level Oakland Center
11:37PM 35.8967 -120.2464 139° Southeast 442 509 41,000  Level Oakland Center
11:38PM 35.8031 -120.1461 139° Southeast 443 510 41,000  Level Oakland Center
11:39PM 35.6892 -120.0236 139° Southeast 448 516 41,000  Level Oakland Center
11:40PM 35.5906 -119.9267 141° Southeast 448 516 41,000  Level Oakland Center
11:41PM 35.4867 -119.8394 146° Southeast 448 516 41,000  Level Oakland Center
11:42PM 35.3825 -119.7494 145° Southeast 452 520 41,000  Level Oakland Center
11:43PM 35.2803 -119.6619 145° Southeast 451 519 41,000  Level Los Angeles Center
11:44PM 35.1775 -119.5728 145° Southeast 452 520 41,000  Level Los Angeles Center
11:45PM 35.0533 -119.4689 146° Southeast 449 517 41,000  Level Los Angeles Center
11:46PM 34.9531 -119.3828 145° Southeast 444 511 41,000  Level Los Angeles Center
11:47PM 34.8508 -119.2972 146° Southeast 444 511 41,000  Level Los Angeles Center
11:48PM 34.7494 -119.2114 145° Southeast 443 510 41,000  Level Los Angeles Center
11:49PM 34.6328 -119.1147 146° Southeast 440 506 41,000  Level Los Angeles Center
11:50PM 34.5275 -119.0250 145° Southeast 442 509 41,000  Level Los Angeles Center
11:51PM 34.4108 -118.9286 146° Southeast 440 506 41,000  Level Los Angeles Center
11:52PM 34.3164 -118.8428 143° Southeast 428 493 41,000 -420 Level Los Angeles Center
11:53PM 34.2281 -118.7450 138° Southeast 431 496 40,200 -900 Descending Los Angeles Center
11:54PM 34.1383 -118.6506 139° Southeast 428 493 39,200 -960 Descending Los Angeles Center
11:55PM 34.0503 -118.5581 139° Southeast 422 486 38,300 -900 Descending Los Angeles Center
11:56PM 33.9614 -118.4631 138° Southeast 425 489 37,400 -1,560 Descending Los Angeles Center
11:58PM 33.8767 -118.3594 135° Southeast 430 495 35,200 -2,640 Descending Los Angeles Center
11:59PM 33.7803 -118.2408 134° Southeast 432 497 32,100 -2,640 Descending Los Angeles Center
12:00AM 33.7069 -118.1411 131° Southeast 438 504 29,900 -2,040 Descending Los Angeles Center
12:01AM 33.6272 -118.0411 134° Southeast 416 479 28,000 -1,980 Descending Los Angeles Center
12:02AM 33.5508 -117.9453 134° Southeast 401 461 25,900 -2,040 Descending Los Angeles Center
12:03AM 33.4769 -117.8519 133° Southeast 388 447 23,900 -2,160 Descending Los Angeles Center
12:04AM 33.3919 -117.7439 133° Southeast 374 430 21,500 -1,860 Descending Los Angeles Center
12:05AM 33.3231 -117.6583 134° Southeast 360 414 19,800 -1,980 Descending Los Angeles Center
12:06AM 33.2500 -117.5667 134° Southeast 345 397 17,400 -2,220 Descending Southern California TRACON
12:07AM 33.1667 -117.5000 146° Southeast 337 388 15,400 -1,740 Descending Southern California TRACON
12:08AM 33.1000 -117.4333 140° Southeast 314 361 13,900 -1,860 Descending Southern California TRACON
12:09AM 33.0333 -117.3833 148° Southeast 314 361 11,900 -1,800 Descending Southern California TRACON
12:10AM 32.9500 -117.3167 146° Southeast 298 343 10,300 -1,560 Descending Southern California TRACON
12:11AM 32.8833 -117.2667 148° Southeast 287 330 8,800 -1,560 Descending Southern California TRACON
12:12AM 32.8333 -117.2000 132° Southeast 284 327 7,200 -1,620 Descending Southern California TRACON
12:12AM 32.8264 -117.1861 121° Southeast 279 321 6,800 -1,020 Descending Los Angeles Center
12:13AM 32.7831 -117.1297 132° Southeast 275 316 5,900 -1,020 Descending Los Angeles Center
12:14AM 32.7667 -117.0500 104° East 248 285 5,000 -540 Descending Southern California TRACON
12:15AM 32.7500 -116.9833 107° East 222 255 5,000 -300 Level Southern California TRACON
12:16AM 32.7000 -116.9500 151° Southeast 216 249 4,500 -840 Descending Southern California TRACON
12:17AM 32.6833 -117.0000 248° West 195 224 3,500 -1,380 Descending Southern California TRACON
12:18AM 32.7000 -117.0667 287° West 175 201 1,800 -1,080 Descending Southern California TRACON
12:19AM 32.7167 -117.1000 301° West 130 150 1,400 -600 Descending Southern California TRACON
12:20AM 32.7167 -117.1500 270° West 128 147 700 -660 Descending Southern California TRACON
12:20AM 32.7253 -117.1519 349° North 130 150 500 -420 Descending Los Angeles Center
12:21AM 32.7378 -117.2000 287° West 130 150 200 -300 Descending Los Angeles Center
12:23AM 32.7336 -117.1897 128° Southeast  Level Estimated